sensor_id;sensor_type;location;lat;lon;timestamp;P1;durP1;ratioP1;P2;durP2;ratioP2
42384;SDS011;28042;43.986;22.860;2023-05-06T00:02:03;20.77;;;13.13;;
42384;SDS011;28042;43.986;22.860;2023-05-06T00:04:28;17.27;;;12.60;;
42384;SDS011;28042;43.986;22.860;2023-05-06T00:06:54;15.77;;;12.07;;
42384;SDS011;28042;43.986;22.860;2023-05-06T00:09:21;12.03;;;9.50;;
42384;SDS011;28042;43.986;22.860;2023-05-06T00:11:48;10.20;;;8.43;;
42384;SDS011;28042;43.986;22.860;2023-05-06T00:14:14;11.63;;;8.05;;
42384;SDS011;28042;43.986;22.860;2023-05-06T00:16:39;11.50;;;7.70;;
42384;SDS011;28042;43.986;22.860;2023-05-06T00:19:05;9.88;;;8.32;;
42384;SDS011;28042;43.986;22.860;2023-05-06T00:21:31;10.55;;;7.25;;
42384;SDS011;28042;43.986;22.860;2023-05-06T00:23:56;9.80;;;7.68;;
42384;SDS011;28042;43.986;22.860;2023-05-06T00:26:22;10.23;;;7.40;;
42384;SDS011;28042;43.986;22.860;2023-05-06T00:28:47;10.27;;;7.45;;
42384;SDS011;28042;43.986;22.860;2023-05-06T00:31:13;9.23;;;7.93;;
42384;SDS011;28042;43.986;22.860;2023-05-06T00:33:38;11.77;;;7.93;;
42384;SDS011;28042;43.986;22.860;2023-05-06T00:36:04;11.73;;;7.95;;
42384;SDS011;28042;43.986;22.860;2023-05-06T00:38:30;8.55;;;7.18;;
42384;SDS011;28042;43.986;22.860;2023-05-06T00:40:55;10.18;;;7.13;;
42384;SDS011;28042;43.986;22.860;2023-05-06T00:43:20;11.07;;;7.68;;
42384;SDS011;28042;43.986;22.860;2023-05-06T00:45:46;9.82;;;7.85;;
42384;SDS011;28042;43.986;22.860;2023-05-06T00:48:12;9.80;;;8.43;;
42384;SDS011;28042;43.986;22.860;2023-05-06T00:50:40;12.75;;;8.48;;
42384;SDS011;28042;43.986;22.860;2023-05-06T00:53:07;11.73;;;8.10;;
42384;SDS011;28042;43.986;22.860;2023-05-06T00:55:34;9.85;;;8.77;;
42384;SDS011;28042;43.986;22.860;2023-05-06T00:58:00;16.17;;;9.38;;
42384;SDS011;28042;43.986;22.860;2023-05-06T01:00:26;10.30;;;8.30;;
42384;SDS011;28042;43.986;22.860;2023-05-06T01:02:51;9.60;;;8.27;;
42384;SDS011;28042;43.986;22.860;2023-05-06T01:05:18;11.18;;;9.18;;
42384;SDS011;28042;43.986;22.860;2023-05-06T01:10:28;9.52;;;8.25;;
42384;SDS011;28042;43.986;22.860;2023-05-06T01:15:35;9.27;;;8.27;;
42384;SDS011;28042;43.986;22.860;2023-05-06T01:18:09;10.13;;;8.20;;
42384;SDS011;28042;43.986;22.860;2023-05-06T01:20:37;8.15;;;7.18;;
42384;SDS011;28042;43.986;22.860;2023-05-06T01:23:08;9.45;;;7.38;;
42384;SDS011;28042;43.986;22.860;2023-05-06T01:25:37;9.13;;;7.28;;
42384;SDS011;28042;43.986;22.860;2023-05-06T01:28:03;8.88;;;7.78;;
42384;SDS011;28042;43.986;22.860;2023-05-06T01:30:33;9.38;;;7.40;;
42384;SDS011;28042;43.986;22.860;2023-05-06T01:33:08;9.40;;;8.38;;
42384;SDS011;28042;43.986;22.860;2023-05-06T01:35:48;10.88;;;7.90;;
42384;SDS011;28042;43.986;22.860;2023-05-06T01:40:49;10.07;;;7.63;;
42384;SDS011;28042;43.986;22.860;2023-05-06T01:43:18;10.48;;;8.50;;
42384;SDS011;28042;43.986;22.860;2023-05-06T01:45:46;12.57;;;8.40;;
42384;SDS011;28042;43.986;22.860;2023-05-06T01:48:18;8.38;;;7.50;;
42384;SDS011;28042;43.986;22.860;2023-05-06T01:50:48;11.20;;;8.52;;
42384;SDS011;28042;43.986;22.860;2023-05-06T01:53:13;10.48;;;8.63;;
42384;SDS011;28042;43.986;22.860;2023-05-06T01:55:39;9.70;;;8.52;;
42384;SDS011;28042;43.986;22.860;2023-05-06T01:58:04;10.05;;;8.18;;
42384;SDS011;28042;43.986;22.860;2023-05-06T02:00:30;10.00;;;8.27;;
42384;SDS011;28042;43.986;22.860;2023-05-06T02:02:55;10.60;;;7.75;;
42384;SDS011;28042;43.986;22.860;2023-05-06T02:05:21;8.90;;;7.63;;
42384;SDS011;28042;43.986;22.860;2023-05-06T02:07:46;11.65;;;7.78;;
42384;SDS011;28042;43.986;22.860;2023-05-06T02:10:12;11.30;;;8.15;;
42384;SDS011;28042;43.986;22.860;2023-05-06T02:12:37;11.40;;;8.55;;
42384;SDS011;28042;43.986;22.860;2023-05-06T02:15:03;10.50;;;8.43;;
42384;SDS011;28042;43.986;22.860;2023-05-06T02:17:28;12.40;;;8.35;;
42384;SDS011;28042;43.986;22.860;2023-05-06T02:19:54;12.23;;;8.90;;
42384;SDS011;28042;43.986;22.860;2023-05-06T02:22:19;11.63;;;9.68;;
42384;SDS011;28042;43.986;22.860;2023-05-06T02:24:45;10.25;;;8.73;;
42384;SDS011;28042;43.986;22.860;2023-05-06T02:27:10;9.43;;;8.43;;
42384;SDS011;28042;43.986;22.860;2023-05-06T02:29:36;11.25;;;8.65;;
42384;SDS011;28042;43.986;22.860;2023-05-06T02:32:01;10.18;;;8.60;;
42384;SDS011;28042;43.986;22.860;2023-05-06T02:34:27;11.27;;;8.38;;
42384;SDS011;28042;43.986;22.860;2023-05-06T02:36:52;10.68;;;8.82;;
42384;SDS011;28042;43.986;22.860;2023-05-06T02:39:18;10.95;;;8.25;;
42384;SDS011;28042;43.986;22.860;2023-05-06T02:41:43;12.85;;;9.23;;
42384;SDS011;28042;43.986;22.860;2023-05-06T02:44:08;11.40;;;9.13;;
42384;SDS011;28042;43.986;22.860;2023-05-06T02:46:34;14.35;;;9.35;;
42384;SDS011;28042;43.986;22.860;2023-05-06T02:48:59;12.40;;;9.25;;
42384;SDS011;28042;43.986;22.860;2023-05-06T02:51:25;14.48;;;9.65;;
42384;SDS011;28042;43.986;22.860;2023-05-06T02:53:51;12.30;;;9.93;;
42384;SDS011;28042;43.986;22.860;2023-05-06T02:56:17;14.52;;;10.00;;
42384;SDS011;28042;43.986;22.860;2023-05-06T02:58:43;13.88;;;10.52;;
42384;SDS011;28042;43.986;22.860;2023-05-06T03:01:08;12.05;;;10.05;;
42384;SDS011;28042;43.986;22.860;2023-05-06T03:03:34;13.00;;;9.77;;
42384;SDS011;28042;43.986;22.860;2023-05-06T03:05:59;12.07;;;10.85;;
42384;SDS011;28042;43.986;22.860;2023-05-06T03:08:25;12.60;;;10.98;;
42384;SDS011;28042;43.986;22.860;2023-05-06T03:10:50;14.75;;;12.40;;
42384;SDS011;28042;43.986;22.860;2023-05-06T03:13:16;17.70;;;12.05;;
42384;SDS011;28042;43.986;22.860;2023-05-06T03:15:41;16.95;;;10.00;;
42384;SDS011;28042;43.986;22.860;2023-05-06T03:18:07;15.45;;;11.57;;
42384;SDS011;28042;43.986;22.860;2023-05-06T03:20:32;13.30;;;10.13;;
42384;SDS011;28042;43.986;22.860;2023-05-06T03:22:58;11.52;;;10.32;;
42384;SDS011;28042;43.986;22.860;2023-05-06T03:25:23;13.23;;;9.73;;
42384;SDS011;28042;43.986;22.860;2023-05-06T03:27:49;10.23;;;8.73;;
42384;SDS011;28042;43.986;22.860;2023-05-06T03:30:14;12.77;;;8.00;;
42384;SDS011;28042;43.986;22.860;2023-05-06T03:32:40;10.32;;;7.93;;
42384;SDS011;28042;43.986;22.860;2023-05-06T03:35:05;11.23;;;8.43;;
42384;SDS011;28042;43.986;22.860;2023-05-06T03:37:32;12.45;;;9.23;;
42384;SDS011;28042;43.986;22.860;2023-05-06T03:39:58;18.40;;;10.02;;
42384;SDS011;28042;43.986;22.860;2023-05-06T03:42:24;10.60;;;8.95;;
42384;SDS011;28042;43.986;22.860;2023-05-06T03:44:50;13.63;;;8.57;;
42384;SDS011;28042;43.986;22.860;2023-05-06T03:47:15;10.73;;;8.43;;
42384;SDS011;28042;43.986;22.860;2023-05-06T03:49:41;13.60;;;8.35;;
42384;SDS011;28042;43.986;22.860;2023-05-06T03:52:06;13.35;;;8.95;;
42384;SDS011;28042;43.986;22.860;2023-05-06T03:54:32;30.85;;;10.07;;
42384;SDS011;28042;43.986;22.860;2023-05-06T03:56:58;30.85;;;9.43;;
42384;SDS011;28042;43.986;22.860;2023-05-06T03:59:23;11.98;;;7.15;;
42384;SDS011;28042;43.986;22.860;2023-05-06T04:01:48;12.40;;;7.07;;
42384;SDS011;28042;43.986;22.860;2023-05-06T04:04:14;11.25;;;7.15;;
42384;SDS011;28042;43.986;22.860;2023-05-06T04:06:40;9.27;;;7.10;;
42384;SDS011;28042;43.986;22.860;2023-05-06T04:09:05;9.98;;;6.53;;
42384;SDS011;28042;43.986;22.860;2023-05-06T04:11:31;7.20;;;5.53;;
42384;SDS011;28042;43.986;22.860;2023-05-06T04:13:56;9.23;;;6.03;;
42384;SDS011;28042;43.986;22.860;2023-05-06T04:16:21;10.27;;;5.53;;
42384;SDS011;28042;43.986;22.860;2023-05-06T04:18:47;12.15;;;5.85;;
42384;SDS011;28042;43.986;22.860;2023-05-06T04:21:13;12.38;;;5.63;;
42384;SDS011;28042;43.986;22.860;2023-05-06T04:23:39;6.90;;;5.35;;
42384;SDS011;28042;43.986;22.860;2023-05-06T04:26:05;10.32;;;6.05;;
42384;SDS011;28042;43.986;22.860;2023-05-06T04:28:31;15.00;;;6.60;;
42384;SDS011;28042;43.986;22.860;2023-05-06T04:30:56;12.25;;;6.97;;
42384;SDS011;28042;43.986;22.860;2023-05-06T04:33:22;22.90;;;9.82;;
42384;SDS011;28042;43.986;22.860;2023-05-06T04:35:50;26.35;;;18.58;;
42384;SDS011;28042;43.986;22.860;2023-05-06T04:38:19;31.73;;;18.98;;
42384;SDS011;28042;43.986;22.860;2023-05-06T04:40:49;28.88;;;21.15;;
42384;SDS011;28042;43.986;22.860;2023-05-06T04:43:16;23.77;;;21.25;;
42384;SDS011;28042;43.986;22.860;2023-05-06T04:45:42;23.88;;;20.35;;
42384;SDS011;28042;43.986;22.860;2023-05-06T04:48:17;28.13;;;20.15;;
42384;SDS011;28042;43.986;22.860;2023-05-06T04:50:43;28.67;;;19.25;;
42384;SDS011;28042;43.986;22.860;2023-05-06T04:53:09;26.67;;;19.48;;
42384;SDS011;28042;43.986;22.860;2023-05-06T04:55:35;24.70;;;17.70;;
42384;SDS011;28042;43.986;22.860;2023-05-06T04:58:00;19.60;;;16.85;;
42384;SDS011;28042;43.986;22.860;2023-05-06T05:00:26;21.35;;;16.45;;
42384;SDS011;28042;43.986;22.860;2023-05-06T05:02:51;19.58;;;16.33;;
42384;SDS011;28042;43.986;22.860;2023-05-06T05:05:17;16.70;;;14.00;;
42384;SDS011;28042;43.986;22.860;2023-05-06T05:07:43;19.23;;;14.10;;
42384;SDS011;28042;43.986;22.860;2023-05-06T05:10:09;25.88;;;15.52;;
42384;SDS011;28042;43.986;22.860;2023-05-06T05:12:34;18.63;;;16.52;;
42384;SDS011;28042;43.986;22.860;2023-05-06T05:15:00;23.17;;;18.13;;
42384;SDS011;28042;43.986;22.860;2023-05-06T05:17:26;26.63;;;18.23;;
42384;SDS011;28042;43.986;22.860;2023-05-06T05:19:52;21.83;;;18.23;;
42384;SDS011;28042;43.986;22.860;2023-05-06T05:22:17;30.63;;;18.60;;
42384;SDS011;28042;43.986;22.860;2023-05-06T05:24:42;24.08;;;19.00;;
42384;SDS011;28042;43.986;22.860;2023-05-06T05:27:08;26.77;;;19.08;;
42384;SDS011;28042;43.986;22.860;2023-05-06T05:29:34;24.40;;;18.27;;
42384;SDS011;28042;43.986;22.860;2023-05-06T05:32:00;26.83;;;16.58;;
42384;SDS011;28042;43.986;22.860;2023-05-06T05:34:26;21.13;;;17.00;;
42384;SDS011;28042;43.986;22.860;2023-05-06T05:36:51;17.38;;;15.20;;
42384;SDS011;28042;43.986;22.860;2023-05-06T05:39:17;25.10;;;16.08;;
42384;SDS011;28042;43.986;22.860;2023-05-06T05:41:42;24.02;;;16.42;;
42384;SDS011;28042;43.986;22.860;2023-05-06T05:44:08;13.70;;;12.30;;
42384;SDS011;28042;43.986;22.860;2023-05-06T05:46:33;12.98;;;11.45;;
42384;SDS011;28042;43.986;22.860;2023-05-06T05:48:59;13.30;;;11.45;;
42384;SDS011;28042;43.986;22.860;2023-05-06T05:51:25;12.38;;;11.05;;
42384;SDS011;28042;43.986;22.860;2023-05-06T05:53:50;16.58;;;11.65;;
42384;SDS011;28042;43.986;22.860;2023-05-06T05:56:16;11.82;;;10.13;;
42384;SDS011;28042;43.986;22.860;2023-05-06T05:58:42;12.45;;;10.93;;
42384;SDS011;28042;43.986;22.860;2023-05-06T06:01:07;16.58;;;11.30;;
42384;SDS011;28042;43.986;22.860;2023-05-06T06:03:33;14.05;;;11.38;;
42384;SDS011;28042;43.986;22.860;2023-05-06T06:05:58;18.77;;;13.80;;
42384;SDS011;28042;43.986;22.860;2023-05-06T06:08:24;18.15;;;14.05;;
42384;SDS011;28042;43.986;22.860;2023-05-06T06:10:50;14.35;;;12.75;;
42384;SDS011;28042;43.986;22.860;2023-05-06T06:13:16;18.48;;;14.95;;
42384;SDS011;28042;43.986;22.860;2023-05-06T06:15:41;17.90;;;13.65;;
42384;SDS011;28042;43.986;22.860;2023-05-06T06:18:07;16.33;;;14.50;;
42384;SDS011;28042;43.986;22.860;2023-05-06T06:20:33;21.95;;;13.95;;
42384;SDS011;28042;43.986;22.860;2023-05-06T06:22:59;13.70;;;11.65;;
42384;SDS011;28042;43.986;22.860;2023-05-06T06:25:25;16.85;;;11.63;;
42384;SDS011;28042;43.986;22.860;2023-05-06T06:27:50;13.07;;;11.20;;
42384;SDS011;28042;43.986;22.860;2023-05-06T06:30:15;13.93;;;11.45;;
42384;SDS011;28042;43.986;22.860;2023-05-06T06:32:48;14.45;;;11.93;;
42384;SDS011;28042;43.986;22.860;2023-05-06T06:35:14;15.27;;;12.35;;
42384;SDS011;28042;43.986;22.860;2023-05-06T06:37:40;21.38;;;12.98;;
42384;SDS011;28042;43.986;22.860;2023-05-06T06:40:06;13.90;;;12.50;;
42384;SDS011;28042;43.986;22.860;2023-05-06T06:42:32;14.45;;;12.40;;
42384;SDS011;28042;43.986;22.860;2023-05-06T06:44:57;14.60;;;12.48;;
42384;SDS011;28042;43.986;22.860;2023-05-06T06:47:23;14.25;;;12.27;;
42384;SDS011;28042;43.986;22.860;2023-05-06T06:49:48;13.75;;;12.13;;
42384;SDS011;28042;43.986;22.860;2023-05-06T06:52:14;14.50;;;12.18;;
42384;SDS011;28042;43.986;22.860;2023-05-06T06:54:39;15.25;;;12.70;;
42384;SDS011;28042;43.986;22.860;2023-05-06T06:57:05;15.38;;;13.63;;
42384;SDS011;28042;43.986;22.860;2023-05-06T06:59:31;15.88;;;12.85;;
42384;SDS011;28042;43.986;22.860;2023-05-06T07:01:56;16.75;;;12.88;;
42384;SDS011;28042;43.986;22.860;2023-05-06T07:04:22;13.85;;;12.55;;
42384;SDS011;28042;43.986;22.860;2023-05-06T07:06:49;16.13;;;12.48;;
42384;SDS011;28042;43.986;22.860;2023-05-06T07:09:15;15.13;;;12.02;;
42384;SDS011;28042;43.986;22.860;2023-05-06T07:11:41;12.35;;;11.15;;
42384;SDS011;28042;43.986;22.860;2023-05-06T07:14:06;13.98;;;12.07;;
42384;SDS011;28042;43.986;22.860;2023-05-06T07:16:34;13.02;;;11.70;;
42384;SDS011;28042;43.986;22.860;2023-05-06T07:18:59;12.23;;;10.93;;
42384;SDS011;28042;43.986;22.860;2023-05-06T07:21:25;13.43;;;10.82;;
42384;SDS011;28042;43.986;22.860;2023-05-06T07:23:51;16.17;;;11.30;;
42384;SDS011;28042;43.986;22.860;2023-05-06T07:26:17;13.40;;;11.18;;
42384;SDS011;28042;43.986;22.860;2023-05-06T07:28:43;12.85;;;11.05;;
42384;SDS011;28042;43.986;22.860;2023-05-06T07:31:08;14.65;;;11.35;;
42384;SDS011;28042;43.986;22.860;2023-05-06T07:33:34;12.20;;;10.50;;
42384;SDS011;28042;43.986;22.860;2023-05-06T07:35:59;13.57;;;11.07;;
42384;SDS011;28042;43.986;22.860;2023-05-06T07:38:25;12.52;;;9.30;;
42384;SDS011;28042;43.986;22.860;2023-05-06T07:40:51;11.52;;;9.38;;
42384;SDS011;28042;43.986;22.860;2023-05-06T07:43:16;9.07;;;8.23;;
42384;SDS011;28042;43.986;22.860;2023-05-06T07:45:42;10.35;;;8.50;;
42384;SDS011;28042;43.986;22.860;2023-05-06T07:48:07;9.40;;;8.38;;
42384;SDS011;28042;43.986;22.860;2023-05-06T07:50:34;10.98;;;8.80;;
42384;SDS011;28042;43.986;22.860;2023-05-06T07:53:00;8.85;;;7.55;;
42384;SDS011;28042;43.986;22.860;2023-05-06T07:55:25;7.72;;;7.03;;
42384;SDS011;28042;43.986;22.860;2023-05-06T07:57:52;8.63;;;7.68;;
42384;SDS011;28042;43.986;22.860;2023-05-06T08:00:17;8.73;;;7.70;;
42384;SDS011;28042;43.986;22.860;2023-05-06T08:02:43;8.70;;;7.70;;
42384;SDS011;28042;43.986;22.860;2023-05-06T08:05:10;9.55;;;8.07;;
42384;SDS011;28042;43.986;22.860;2023-05-06T08:07:36;10.50;;;9.40;;
42384;SDS011;28042;43.986;22.860;2023-05-06T08:10:01;11.18;;;8.60;;
42384;SDS011;28042;43.986;22.860;2023-05-06T08:12:27;12.02;;;9.10;;
42384;SDS011;28042;43.986;22.860;2023-05-06T08:14:53;10.70;;;8.38;;
42384;SDS011;28042;43.986;22.860;2023-05-06T08:17:19;12.23;;;8.65;;
42384;SDS011;28042;43.986;22.860;2023-05-06T08:19:45;14.85;;;7.95;;
42384;SDS011;28042;43.986;22.860;2023-05-06T08:22:10;12.15;;;7.53;;
42384;SDS011;28042;43.986;22.860;2023-05-06T08:24:36;8.48;;;7.05;;
42384;SDS011;28042;43.986;22.860;2023-05-06T08:27:02;10.05;;;7.93;;
42384;SDS011;28042;43.986;22.860;2023-05-06T08:29:28;8.38;;;7.20;;
42384;SDS011;28042;43.986;22.860;2023-05-06T08:31:53;10.48;;;6.72;;
42384;SDS011;28042;43.986;22.860;2023-05-06T08:34:19;9.80;;;6.95;;
42384;SDS011;28042;43.986;22.860;2023-05-06T08:36:45;7.47;;;6.63;;
42384;SDS011;28042;43.986;22.860;2023-05-06T08:39:11;10.00;;;6.30;;
42384;SDS011;28042;43.986;22.860;2023-05-06T08:41:38;8.68;;;6.60;;
42384;SDS011;28042;43.986;22.860;2023-05-06T08:44:05;12.48;;;6.00;;
42384;SDS011;28042;43.986;22.860;2023-05-06T08:46:32;8.70;;;6.33;;
42384;SDS011;28042;43.986;22.860;2023-05-06T08:48:58;8.48;;;5.70;;
42384;SDS011;28042;43.986;22.860;2023-05-06T08:51:28;8.00;;;5.93;;
42384;SDS011;28042;43.986;22.860;2023-05-06T08:53:55;8.98;;;5.82;;
42384;SDS011;28042;43.986;22.860;2023-05-06T08:56:25;9.38;;;5.28;;
42384;SDS011;28042;43.986;22.860;2023-05-06T08:58:53;8.13;;;5.00;;
42384;SDS011;28042;43.986;22.860;2023-05-06T09:01:20;8.63;;;4.70;;
42384;SDS011;28042;43.986;22.860;2023-05-06T09:03:46;7.43;;;5.55;;
42384;SDS011;28042;43.986;22.860;2023-05-06T09:06:12;6.50;;;5.37;;
42384;SDS011;28042;43.986;22.860;2023-05-06T09:08:38;7.93;;;5.45;;
42384;SDS011;28042;43.986;22.860;2023-05-06T09:11:17;6.45;;;5.28;;
42384;SDS011;28042;43.986;22.860;2023-05-06T09:13:47;10.43;;;4.57;;
42384;SDS011;28042;43.986;22.860;2023-05-06T09:16:28;12.48;;;5.22;;
42384;SDS011;28042;43.986;22.860;2023-05-06T09:18:55;7.93;;;4.72;;
42384;SDS011;28042;43.986;22.860;2023-05-06T09:21:20;6.65;;;4.78;;
42384;SDS011;28042;43.986;22.860;2023-05-06T09:23:46;7.43;;;4.75;;
42384;SDS011;28042;43.986;22.860;2023-05-06T09:26:11;7.20;;;4.80;;
42384;SDS011;28042;43.986;22.860;2023-05-06T09:28:37;8.65;;;4.20;;
42384;SDS011;28042;43.986;22.860;2023-05-06T09:31:03;5.95;;;4.07;;
42384;SDS011;28042;43.986;22.860;2023-05-06T09:33:29;6.55;;;4.20;;
42384;SDS011;28042;43.986;22.860;2023-05-06T09:35:54;8.13;;;3.60;;
42384;SDS011;28042;43.986;22.860;2023-05-06T09:38:21;9.30;;;4.00;;
42384;SDS011;28042;43.986;22.860;2023-05-06T09:40:46;5.82;;;4.32;;
42384;SDS011;28042;43.986;22.860;2023-05-06T09:43:11;8.52;;;4.15;;
42384;SDS011;28042;43.986;22.860;2023-05-06T09:48:05;6.75;;;4.00;;
42384;SDS011;28042;43.986;22.860;2023-05-06T09:50:32;13.07;;;3.97;;
42384;SDS011;28042;43.986;22.860;2023-05-06T09:52:57;5.35;;;3.78;;
42384;SDS011;28042;43.986;22.860;2023-05-06T09:55:24;6.82;;;4.07;;
42384;SDS011;28042;43.986;22.860;2023-05-06T09:57:51;9.48;;;4.47;;
42384;SDS011;28042;43.986;22.860;2023-05-06T10:00:17;8.50;;;4.45;;
42384;SDS011;28042;43.986;22.860;2023-05-06T10:02:43;6.72;;;4.05;;
42384;SDS011;28042;43.986;22.860;2023-05-06T10:05:10;9.63;;;3.92;;
42384;SDS011;28042;43.986;22.860;2023-05-06T10:07:36;6.18;;;3.53;;
42384;SDS011;28042;43.986;22.860;2023-05-06T10:10:03;6.82;;;4.70;;
42384;SDS011;28042;43.986;22.860;2023-05-06T10:12:32;8.70;;;4.43;;
42384;SDS011;28042;43.986;22.860;2023-05-06T10:17:25;7.47;;;4.57;;
42384;SDS011;28042;43.986;22.860;2023-05-06T10:19:54;9.90;;;5.07;;
42384;SDS011;28042;43.986;22.860;2023-05-06T10:22:39;10.15;;;4.20;;
42384;SDS011;28042;43.986;22.860;2023-05-06T10:27:47;8.88;;;4.20;;
42384;SDS011;28042;43.986;22.860;2023-05-06T10:30:14;6.85;;;3.88;;
42384;SDS011;28042;43.986;22.860;2023-05-06T10:32:43;7.03;;;3.80;;
42384;SDS011;28042;43.986;22.860;2023-05-06T10:37:41;7.70;;;4.20;;
42384;SDS011;28042;43.986;22.860;2023-05-06T10:40:09;4.40;;;3.35;;
42384;SDS011;28042;43.986;22.860;2023-05-06T10:42:35;10.60;;;3.60;;
42384;SDS011;28042;43.986;22.860;2023-05-06T10:45:02;6.13;;;3.78;;
42384;SDS011;28042;43.986;22.860;2023-05-06T10:52:56;10.60;;;3.50;;
42384;SDS011;28042;43.986;22.860;2023-05-06T10:55:24;5.25;;;3.15;;
42384;SDS011;28042;43.986;22.860;2023-05-06T10:58:04;6.75;;;3.10;;
42384;SDS011;28042;43.986;22.860;2023-05-06T11:00:36;5.45;;;3.20;;
42384;SDS011;28042;43.986;22.860;2023-05-06T11:03:05;4.70;;;3.20;;
42384;SDS011;28042;43.986;22.860;2023-05-06T11:05:47;5.88;;;2.70;;
42384;SDS011;28042;43.986;22.860;2023-05-06T11:08:15;6.10;;;3.25;;
42384;SDS011;28042;43.986;22.860;2023-05-06T11:10:46;6.75;;;3.30;;
42384;SDS011;28042;43.986;22.860;2023-05-06T11:13:24;8.35;;;3.13;;
42384;SDS011;28042;43.986;22.860;2023-05-06T11:15:51;5.88;;;3.25;;
42384;SDS011;28042;43.986;22.860;2023-05-06T11:26:17;8.57;;;3.15;;
42384;SDS011;28042;43.986;22.860;2023-05-06T11:28:44;6.90;;;2.88;;
42384;SDS011;28042;43.986;22.860;2023-05-06T11:31:11;4.88;;;3.05;;
42384;SDS011;28042;43.986;22.860;2023-05-06T11:33:44;5.65;;;2.75;;
42384;SDS011;28042;43.986;22.860;2023-05-06T11:36:14;4.05;;;2.75;;
42384;SDS011;28042;43.986;22.860;2023-05-06T11:38:45;7.68;;;2.55;;
42384;SDS011;28042;43.986;22.860;2023-05-06T11:41:16;4.85;;;2.67;;
42384;SDS011;28042;43.986;22.860;2023-05-06T11:43:45;4.85;;;2.83;;
42384;SDS011;28042;43.986;22.860;2023-05-06T11:46:13;5.75;;;2.55;;
42384;SDS011;28042;43.986;22.860;2023-05-06T11:48:39;3.92;;;2.35;;
42384;SDS011;28042;43.986;22.860;2023-05-06T11:51:07;8.50;;;2.80;;
42384;SDS011;28042;43.986;22.860;2023-05-06T11:53:32;3.65;;;2.50;;
42384;SDS011;28042;43.986;22.860;2023-05-06T11:55:58;3.60;;;2.70;;
42384;SDS011;28042;43.986;22.860;2023-05-06T11:58:24;4.93;;;2.50;;
42384;SDS011;28042;43.986;22.860;2023-05-06T12:03:20;5.05;;;2.85;;
42384;SDS011;28042;43.986;22.860;2023-05-06T12:05:47;9.38;;;2.53;;
42384;SDS011;28042;43.986;22.860;2023-05-06T12:08:14;5.38;;;3.03;;
42384;SDS011;28042;43.986;22.860;2023-05-06T12:10:47;5.30;;;2.63;;
42384;SDS011;28042;43.986;22.860;2023-05-06T12:13:14;3.40;;;2.35;;
42384;SDS011;28042;43.986;22.860;2023-05-06T12:15:41;6.00;;;3.00;;
42384;SDS011;28042;43.986;22.860;2023-05-06T12:18:07;4.90;;;2.95;;
42384;SDS011;28042;43.986;22.860;2023-05-06T12:20:33;4.95;;;2.53;;
42384;SDS011;28042;43.986;22.860;2023-05-06T12:23:06;6.30;;;2.33;;
42384;SDS011;28042;43.986;22.860;2023-05-06T12:25:39;4.60;;;2.50;;
42384;SDS011;28042;43.986;22.860;2023-05-06T12:30:38;3.40;;;2.42;;
42384;SDS011;28042;43.986;22.860;2023-05-06T12:33:05;6.55;;;2.55;;
42384;SDS011;28042;43.986;22.860;2023-05-06T12:35:32;4.70;;;2.65;;
42384;SDS011;28042;43.986;22.860;2023-05-06T12:38:10;5.85;;;2.80;;
42384;SDS011;28042;43.986;22.860;2023-05-06T12:40:36;4.90;;;2.50;;
42384;SDS011;28042;43.986;22.860;2023-05-06T12:43:02;4.75;;;2.80;;
42384;SDS011;28042;43.986;22.860;2023-05-06T12:45:28;6.15;;;2.90;;
42384;SDS011;28042;43.986;22.860;2023-05-06T12:47:54;6.38;;;2.50;;
42384;SDS011;28042;43.986;22.860;2023-05-06T12:53:00;5.63;;;2.60;;
42384;SDS011;28042;43.986;22.860;2023-05-06T12:55:28;4.47;;;2.70;;
42384;SDS011;28042;43.986;22.860;2023-05-06T12:57:55;9.32;;;2.17;;
42384;SDS011;28042;43.986;22.860;2023-05-06T13:00:21;6.15;;;2.60;;
42384;SDS011;28042;43.986;22.860;2023-05-06T13:02:46;5.35;;;2.30;;
42384;SDS011;28042;43.986;22.860;2023-05-06T13:05:11;5.03;;;2.30;;
42384;SDS011;28042;43.986;22.860;2023-05-06T13:07:38;4.35;;;2.95;;
42384;SDS011;28042;43.986;22.860;2023-05-06T13:10:04;3.95;;;2.38;;
42384;SDS011;28042;43.986;22.860;2023-05-06T13:12:30;4.50;;;2.33;;
42384;SDS011;28042;43.986;22.860;2023-05-06T13:14:56;7.88;;;2.88;;
42384;SDS011;28042;43.986;22.860;2023-05-06T13:17:22;8.23;;;2.72;;
42384;SDS011;28042;43.986;22.860;2023-05-06T13:19:48;3.80;;;2.55;;
42384;SDS011;28042;43.986;22.860;2023-05-06T13:22:15;4.75;;;2.38;;
42384;SDS011;28042;43.986;22.860;2023-05-06T13:24:40;7.40;;;2.25;;
42384;SDS011;28042;43.986;22.860;2023-05-06T13:27:06;7.40;;;2.20;;
42384;SDS011;28042;43.986;22.860;2023-05-06T13:29:32;5.00;;;2.60;;
42384;SDS011;28042;43.986;22.860;2023-05-06T13:31:57;5.47;;;2.40;;
42384;SDS011;28042;43.986;22.860;2023-05-06T13:34:24;4.50;;;2.58;;
42384;SDS011;28042;43.986;22.860;2023-05-06T13:36:50;5.22;;;2.30;;
42384;SDS011;28042;43.986;22.860;2023-05-06T13:39:18;4.25;;;2.50;;
42384;SDS011;28042;43.986;22.860;2023-05-06T13:41:47;6.53;;;2.40;;
42384;SDS011;28042;43.986;22.860;2023-05-06T13:44:20;4.30;;;2.08;;
42384;SDS011;28042;43.986;22.860;2023-05-06T13:46:46;3.45;;;2.28;;
42384;SDS011;28042;43.986;22.860;2023-05-06T13:49:15;6.63;;;2.40;;
42384;SDS011;28042;43.986;22.860;2023-05-06T13:51:41;4.57;;;2.75;;
42384;SDS011;28042;43.986;22.860;2023-05-06T13:54:06;4.28;;;2.10;;
42384;SDS011;28042;43.986;22.860;2023-05-06T13:56:32;5.05;;;2.30;;
42384;SDS011;28042;43.986;22.860;2023-05-06T13:58:58;12.07;;;2.45;;
42384;SDS011;28042;43.986;22.860;2023-05-06T14:01:23;4.05;;;2.30;;
42384;SDS011;28042;43.986;22.860;2023-05-06T14:03:49;5.72;;;2.20;;
42384;SDS011;28042;43.986;22.860;2023-05-06T14:06:14;6.07;;;2.30;;
42384;SDS011;28042;43.986;22.860;2023-05-06T14:08:41;5.97;;;2.28;;
42384;SDS011;28042;43.986;22.860;2023-05-06T14:11:07;4.82;;;2.33;;
42384;SDS011;28042;43.986;22.860;2023-05-06T14:13:34;4.88;;;2.30;;
42384;SDS011;28042;43.986;22.860;2023-05-06T14:16:00;4.95;;;2.13;;
42384;SDS011;28042;43.986;22.860;2023-05-06T14:18:26;9.50;;;2.72;;
42384;SDS011;28042;43.986;22.860;2023-05-06T14:20:52;5.60;;;2.38;;
42384;SDS011;28042;43.986;22.860;2023-05-06T14:23:18;7.97;;;2.58;;
42384;SDS011;28042;43.986;22.860;2023-05-06T14:25:44;6.13;;;2.53;;
42384;SDS011;28042;43.986;22.860;2023-05-06T14:28:09;5.18;;;2.50;;
42384;SDS011;28042;43.986;22.860;2023-05-06T14:30:35;7.10;;;2.60;;
42384;SDS011;28042;43.986;22.860;2023-05-06T14:33:01;5.50;;;2.60;;
42384;SDS011;28042;43.986;22.860;2023-05-06T14:35:27;6.07;;;2.50;;
42384;SDS011;28042;43.986;22.860;2023-05-06T14:37:53;7.72;;;2.60;;
42384;SDS011;28042;43.986;22.860;2023-05-06T14:40:18;6.05;;;3.08;;
42384;SDS011;28042;43.986;22.860;2023-05-06T14:42:44;5.57;;;2.83;;
42384;SDS011;28042;43.986;22.860;2023-05-06T14:45:10;5.97;;;2.50;;
42384;SDS011;28042;43.986;22.860;2023-05-06T14:47:37;3.78;;;2.30;;
42384;SDS011;28042;43.986;22.860;2023-05-06T14:50:04;9.35;;;2.85;;
42384;SDS011;28042;43.986;22.860;2023-05-06T14:52:31;7.93;;;2.50;;
42384;SDS011;28042;43.986;22.860;2023-05-06T14:54:56;5.60;;;2.90;;
42384;SDS011;28042;43.986;22.860;2023-05-06T14:57:22;4.28;;;2.72;;
42384;SDS011;28042;43.986;22.860;2023-05-06T14:59:48;4.40;;;2.70;;